sensor_id;sensor_type;location;lat;lon;timestamp;P1;P2;P0
44312;PMS5003;38833;51.142;-0.974;2022-10-26T00:01:08;1;1;
44312;PMS5003;38833;51.142;-0.974;2022-10-26T00:03:43;2;1;
44312;PMS5003;38833;51.142;-0.974;2022-10-26T00:06:18;0;0;
44312;PMS5003;38833;51.142;-0.974;2022-10-26T00:08:54;0;0;
44312;PMS5003;38833;51.142;-0.974;2022-10-26T00:11:28;0;0;
44312;PMS5003;38833;51.142;-0.974;2022-10-26T00:14:01;1;1;
44312;PMS5003;38833;51.142;-0.974;2022-10-26T00:16:34;0;0;
44312;PMS5003;38833;51.142;-0.974;2022-10-26T00:19:07;0;0;
44312;PMS5003;38833;51.142;-0.974;2022-10-26T00:21:41;0;0;
44312;PMS5003;38833;51.142;-0.974;2022-10-26T00:24:14;1;0;
44312;PMS5003;38833;51.142;-0.974;2022-10-26T00:26:47;0;0;
44312;PMS5003;38833;51.142;-0.974;2022-10-26T00:29:20;0;0;
44312;PMS5003;38833;51.142;-0.974;2022-10-26T00:31:53;0;0;
44312;PMS5003;38833;51.142;-0.974;2022-10-26T00:34:26;1;0;
44312;PMS5003;38833;51.142;-0.974;2022-10-26T00:36:59;0;0;
44312;PMS5003;38833;51.142;-0.974;2022-10-26T00:39:33;1;0;
44312;PMS5003;38833;51.142;-0.974;2022-10-26T00:42:08;0;0;
44312;PMS5003;38833;51.142;-0.974;2022-10-26T00:44:59;0;0;
44312;PMS5003;38833;51.142;-0.974;2022-10-26T00:47:39;0;0;
44312;PMS5003;38833;51.142;-0.974;2022-10-26T00:50:17;0;0;
44312;PMS5003;38833;51.142;-0.974;2022-10-26T00:52:54;0;0;
44312;PMS5003;38833;51.142;-0.974;2022-10-26T00:55:30;0;0;
44312;PMS5003;38833;51.142;-0.974;2022-10-26T00:58:07;0;0;
44312;PMS5003;38833;51.142;-0.974;2022-10-26T01:00:42;0;0;
44312;PMS5003;38833;51.142;-0.974;2022-10-26T01:03:15;0;0;
44312;PMS5003;38833;51.142;-0.974;2022-10-26T01:05:49;1;0;
44312;PMS5003;38833;51.142;-0.974;2022-10-26T01:08:27;0;0;
44312;PMS5003;38833;51.142;-0.974;2022-10-26T01:11:01;0;0;
44312;PMS5003;38833;51.142;-0.974;2022-10-26T01:13:36;3;1;
44312;PMS5003;38833;51.142;-0.974;2022-10-26T01:16:15;0;0;
44312;PMS5003;38833;51.142;-0.974;2022-10-26T01:19:04;0;0;
44312;PMS5003;38833;51.142;-0.974;2022-10-26T01:21:56;0;0;
44312;PMS5003;38833;51.142;-0.974;2022-10-26T01:24:49;0;0;
44312;PMS5003;38833;51.142;-0.974;2022-10-26T01:27:33;0;0;
44312;PMS5003;38833;51.142;-0.974;2022-10-26T01:30:11;1;1;
44312;PMS5003;38833;51.142;-0.974;2022-10-26T01:32:53;0;0;
44312;PMS5003;38833;51.142;-0.974;2022-10-26T01:35:38;0;0;
44312;PMS5003;38833;51.142;-0.974;2022-10-26T01:38:21;0;0;
44312;PMS5003;38833;51.142;-0.974;2022-10-26T01:41:02;0;0;
44312;PMS5003;38833;51.142;-0.974;2022-10-26T01:43:41;0;0;
44312;PMS5003;38833;51.142;-0.974;2022-10-26T01:46:20;0;0;
44312;PMS5003;38833;51.142;-0.974;2022-10-26T01:48:57;0;0;
44312;PMS5003;38833;51.142;-0.974;2022-10-26T01:51:35;0;0;
44312;PMS5003;38833;51.142;-0.974;2022-10-26T01:54:10;0;0;
44312;PMS5003;38833;51.142;-0.974;2022-10-26T01:56:44;0;0;
44312;PMS5003;38833;51.142;-0.974;2022-10-26T01:59:25;0;0;
44312;PMS5003;38833;51.142;-0.974;2022-10-26T02:02:24;0;0;
44312;PMS5003;38833;51.142;-0.974;2022-10-26T02:05:15;1;0;
44312;PMS5003;38833;51.142;-0.974;2022-10-26T02:08:04;0;0;
44312;PMS5003;38833;51.142;-0.974;2022-10-26T02:10:52;0;0;
44312;PMS5003;38833;51.142;-0.974;2022-10-26T02:13:38;1;0;
44312;PMS5003;38833;51.142;-0.974;2022-10-26T02:16:19;0;0;
44312;PMS5003;38833;51.142;-0.974;2022-10-26T02:18:59;0;0;
44312;PMS5003;38833;51.142;-0.974;2022-10-26T02:21:38;0;0;
44312;PMS5003;38833;51.142;-0.974;2022-10-26T02:24:15;1;0;
44312;PMS5003;38833;51.142;-0.974;2022-10-26T02:26:49;0;0;
44312;PMS5003;38833;51.142;-0.974;2022-10-26T02:29:26;0;0;
44312;PMS5003;38833;51.142;-0.974;2022-10-26T02:32:01;0;0;
44312;PMS5003;38833;51.142;-0.974;2022-10-26T02:34:38;0;0;
44312;PMS5003;38833;51.142;-0.974;2022-10-26T02:37:13;0;0;
44312;PMS5003;38833;51.142;-0.974;2022-10-26T02:39:50;1;1;
44312;PMS5003;38833;51.142;-0.974;2022-10-26T02:42:25;0;0;
44312;PMS5003;38833;51.142;-0.974;2022-10-26T02:45:01;0;0;
44312;PMS5003;38833;51.142;-0.974;2022-10-26T02:47:37;0;0;
44312;PMS5003;38833;51.142;-0.974;2022-10-26T02:50:10;0;0;
44312;PMS5003;38833;51.142;-0.974;2022-10-26T02:52:45;0;0;
44312;PMS5003;38833;51.142;-0.974;2022-10-26T02:55:29;0;0;
44312;PMS5003;38833;51.142;-0.974;2022-10-26T02:58:10;0;0;
44312;PMS5003;38833;51.142;-0.974;2022-10-26T03:00:48;0;0;
44312;PMS5003;38833;51.142;-0.974;2022-10-26T03:03:22;0;0;
44312;PMS5003;38833;51.142;-0.974;2022-10-26T03:05:55;0;0;
44312;PMS5003;38833;51.142;-0.974;2022-10-26T03:08:28;0;0;
44312;PMS5003;38833;51.142;-0.974;2022-10-26T03:11:02;0;0;
44312;PMS5003;38833;51.142;-0.974;2022-10-26T03:13:35;1;1;
44312;PMS5003;38833;51.142;-0.974;2022-10-26T03:16:08;0;0;
44312;PMS5003;38833;51.142;-0.974;2022-10-26T03:18:42;0;0;
44312;PMS5003;38833;51.142;-0.974;2022-10-26T03:21:15;0;0;
44312;PMS5003;38833;51.142;-0.974;2022-10-26T03:23:48;0;0;
44312;PMS5003;38833;51.142;-0.974;2022-10-26T03:26:21;0;0;
44312;PMS5003;38833;51.142;-0.974;2022-10-26T03:28:54;0;0;
44312;PMS5003;38833;51.142;-0.974;2022-10-26T03:31:28;0;0;
44312;PMS5003;38833;51.142;-0.974;2022-10-26T03:34:01;0;0;
44312;PMS5003;38833;51.142;-0.974;2022-10-26T03:36:34;0;0;
44312;PMS5003;38833;51.142;-0.974;2022-10-26T03:39:07;0;0;
44312;PMS5003;38833;51.142;-0.974;2022-10-26T03:41:40;0;0;
44312;PMS5003;38833;51.142;-0.974;2022-10-26T03:44:14;0;0;
44312;PMS5003;38833;51.142;-0.974;2022-10-26T03:46:47;0;0;
44312;PMS5003;38833;51.142;-0.974;2022-10-26T03:49:20;0;0;
44312;PMS5003;38833;51.142;-0.974;2022-10-26T03:51:58;0;0;
44312;PMS5003;38833;51.142;-0.974;2022-10-26T03:54:36;0;0;
44312;PMS5003;38833;51.142;-0.974;2022-10-26T03:57:10;0;0;
44312;PMS5003;38833;51.142;-0.974;2022-10-26T03:59:43;0;0;
44312;PMS5003;38833;51.142;-0.974;2022-10-26T04:03:54;0;0;
44312;PMS5003;38833;51.142;-0.974;2022-10-26T04:06:27;0;0;
44312;PMS5003;38833;51.142;-0.974;2022-10-26T04:09:00;0;0;
44312;PMS5003;38833;51.142;-0.974;2022-10-26T04:11:34;0;0;
44312;PMS5003;38833;51.142;-0.974;2022-10-26T04:14:07;0;0;
44312;PMS5003;38833;51.142;-0.974;2022-10-26T04:16:40;0;0;
44312;PMS5003;38833;51.142;-0.974;2022-10-26T04:19:13;0;0;
44312;PMS5003;38833;51.142;-0.974;2022-10-26T04:21:46;0;0;
44312;PMS5003;38833;51.142;-0.974;2022-10-26T04:24:22;0;0;
44312;PMS5003;38833;51.142;-0.974;2022-10-26T04:26:55;0;0;
44312;PMS5003;38833;51.142;-0.974;2022-10-26T04:29:28;0;0;
44312;PMS5003;38833;51.142;-0.974;2022-10-26T04:32:02;0;0;
44312;PMS5003;38833;51.142;-0.974;2022-10-26T04:34:35;0;0;
44312;PMS5003;38833;51.142;-0.974;2022-10-26T04:37:08;0;0;
44312;PMS5003;38833;51.142;-0.974;2022-10-26T04:39:42;0;0;
44312;PMS5003;38833;51.142;-0.974;2022-10-26T04:42:15;0;0;
44312;PMS5003;38833;51.142;-0.974;2022-10-26T04:44:48;0;0;
44312;PMS5003;38833;51.142;-0.974;2022-10-26T04:47:21;1;1;
44312;PMS5003;38833;51.142;-0.974;2022-10-26T04:49:54;0;0;
44312;PMS5003;38833;51.142;-0.974;2022-10-26T04:52:28;0;0;
44312;PMS5003;38833;51.142;-0.974;2022-10-26T04:55:01;0;0;
44312;PMS5003;38833;51.142;-0.974;2022-10-26T04:57:35;0;0;
44312;PMS5003;38833;51.142;-0.974;2022-10-26T05:00:08;0;0;
44312;PMS5003;38833;51.142;-0.974;2022-10-26T05:02:42;0;0;
44312;PMS5003;38833;51.142;-0.974;2022-10-26T05:05:16;0;0;
44312;PMS5003;38833;51.142;-0.974;2022-10-26T05:07:52;0;0;
44312;PMS5003;38833;51.142;-0.974;2022-10-26T05:10:26;0;0;
44312;PMS5003;38833;51.142;-0.974;2022-10-26T05:13:00;0;0;
44312;PMS5003;38833;51.142;-0.974;2022-10-26T05:15:33;0;0;
44312;PMS5003;38833;51.142;-0.974;2022-10-26T05:18:07;0;0;
44312;PMS5003;38833;51.142;-0.974;2022-10-26T05:20:40;0;0;
44312;PMS5003;38833;51.142;-0.974;2022-10-26T05:23:14;0;0;
44312;PMS5003;38833;51.142;-0.974;2022-10-26T05:25:47;0;0;
44312;PMS5003;38833;51.142;-0.974;2022-10-26T05:28:21;0;0;
44312;PMS5003;38833;51.142;-0.974;2022-10-26T05:30:54;0;0;
44312;PMS5003;38833;51.142;-0.974;2022-10-26T05:33:30;0;0;
44312;PMS5003;38833;51.142;-0.974;2022-10-26T05:36:04;1;0;
44312;PMS5003;38833;51.142;-0.974;2022-10-26T05:38:38;0;0;
44312;PMS5003;38833;51.142;-0.974;2022-10-26T05:41:11;0;0;
44312;PMS5003;38833;51.142;-0.974;2022-10-26T05:43:46;0;0;
44312;PMS5003;38833;51.142;-0.974;2022-10-26T05:46:19;0;0;
44312;PMS5003;38833;51.142;-0.974;2022-10-26T05:48:52;0;0;
44312;PMS5003;38833;51.142;-0.974;2022-10-26T05:51:26;0;0;
44312;PMS5003;38833;51.142;-0.974;2022-10-26T05:53:59;0;0;
44312;PMS5003;38833;51.142;-0.974;2022-10-26T05:56:33;0;0;
44312;PMS5003;38833;51.142;-0.974;2022-10-26T05:59:10;0;0;
44312;PMS5003;38833;51.142;-0.974;2022-10-26T06:01:51;1;0;
44312;PMS5003;38833;51.142;-0.974;2022-10-26T06:04:33;0;0;
44312;PMS5003;38833;51.142;-0.974;2022-10-26T06:07:09;0;0;
44312;PMS5003;38833;51.142;-0.974;2022-10-26T06:09:45;0;0;
44312;PMS5003;38833;51.142;-0.974;2022-10-26T06:12:19;0;0;
44312;PMS5003;38833;51.142;-0.974;2022-10-26T06:14:53;0;0;
44312;PMS5003;38833;51.142;-0.974;2022-10-26T06:17:30;0;0;
44312;PMS5003;38833;51.142;-0.974;2022-10-26T06:20:17;0;0;
44312;PMS5003;38833;51.142;-0.974;2022-10-26T06:23:08;0;0;
44312;PMS5003;38833;51.142;-0.974;2022-10-26T06:25:54;0;0;
44312;PMS5003;38833;51.142;-0.974;2022-10-26T06:28:35;0;0;
44312;PMS5003;38833;51.142;-0.974;2022-10-26T06:31:14;0;0;
44312;PMS5003;38833;51.142;-0.974;2022-10-26T06:33:48;0;0;
44312;PMS5003;38833;51.142;-0.974;2022-10-26T06:36:22;0;0;
44312;PMS5003;38833;51.142;-0.974;2022-10-26T06:38:57;0;0;
44312;PMS5003;38833;51.142;-0.974;2022-10-26T06:41:35;0;0;
44312;PMS5003;38833;51.142;-0.974;2022-10-26T06:44:10;0;0;
44312;PMS5003;38833;51.142;-0.974;2022-10-26T06:46:52;0;0;
44312;PMS5003;38833;51.142;-0.974;2022-10-26T06:49:32;0;0;
44312;PMS5003;38833;51.142;-0.974;2022-10-26T06:49:41;0;0;
44312;PMS5003;38833;51.142;-0.974;2022-10-26T06:52:30;0;0;
44312;PMS5003;38833;51.142;-0.974;2022-10-26T06:55:11;0;0;
44312;PMS5003;38833;51.142;-0.974;2022-10-26T06:57:46;0;0;
44312;PMS5003;38833;51.142;-0.974;2022-10-26T07:00:21;0;0;
44312;PMS5003;38833;51.142;-0.974;2022-10-26T07:02:55;0;0;
44312;PMS5003;38833;51.142;-0.974;2022-10-26T07:05:28;0;0;
44312;PMS5003;38833;51.142;-0.974;2022-10-26T07:08:02;0;0;
44312;PMS5003;38833;51.142;-0.974;2022-10-26T07:10:37;0;0;
44312;PMS5003;38833;51.142;-0.974;2022-10-26T07:13:11;0;0;
44312;PMS5003;38833;51.142;-0.974;2022-10-26T07:15:44;0;0;
44312;PMS5003;38833;51.142;-0.974;2022-10-26T07:18:17;1;0;
44312;PMS5003;38833;51.142;-0.974;2022-10-26T07:20:50;0;0;
44312;PMS5003;38833;51.142;-0.974;2022-10-26T07:23:24;0;0;
44312;PMS5003;38833;51.142;-0.974;2022-10-26T07:25:58;0;0;
44312;PMS5003;38833;51.142;-0.974;2022-10-26T07:28:31;0;0;
44312;PMS5003;38833;51.142;-0.974;2022-10-26T07:31:04;0;0;
44312;PMS5003;38833;51.142;-0.974;2022-10-26T07:33:37;3;0;
44312;PMS5003;38833;51.142;-0.974;2022-10-26T07:36:11;0;0;
44312;PMS5003;38833;51.142;-0.974;2022-10-26T07:38:44;0;0;
44312;PMS5003;38833;51.142;-0.974;2022-10-26T07:41:17;0;0;
44312;PMS5003;38833;51.142;-0.974;2022-10-26T07:43:51;0;0;
44312;PMS5003;38833;51.142;-0.974;2022-10-26T07:46:24;0;0;
44312;PMS5003;38833;51.142;-0.974;2022-10-26T07:48:58;0;0;
44312;PMS5003;38833;51.142;-0.974;2022-10-26T07:51:31;0;0;
44312;PMS5003;38833;51.142;-0.974;2022-10-26T07:54:05;1;0;
44312;PMS5003;38833;51.142;-0.974;2022-10-26T07:56:38;0;0;
44312;PMS5003;38833;51.142;-0.974;2022-10-26T07:59:11;0;0;
44312;PMS5003;38833;51.142;-0.974;2022-10-26T08:01:45;1;0;
44312;PMS5003;38833;51.142;-0.974;2022-10-26T08:04:18;0;0;
44312;PMS5003;38833;51.142;-0.974;2022-10-26T08:06:51;1;0;
44312;PMS5003;38833;51.142;-0.974;2022-10-26T08:09:24;0;0;
44312;PMS5003;38833;51.142;-0.974;2022-10-26T08:11:58;0;0;
44312;PMS5003;38833;51.142;-0.974;2022-10-26T08:14:31;0;0;
44312;PMS5003;38833;51.142;-0.974;2022-10-26T08:17:05;0;0;
44312;PMS5003;38833;51.142;-0.974;2022-10-26T08:19:38;1;0;
44312;PMS5003;38833;51.142;-0.974;2022-10-26T08:22:11;0;0;
44312;PMS5003;38833;51.142;-0.974;2022-10-26T08:24:44;0;0;
44312;PMS5003;38833;51.142;-0.974;2022-10-26T08:27:17;0;0;
44312;PMS5003;38833;51.142;-0.974;2022-10-26T08:29:56;0;0;
44312;PMS5003;38833;51.142;-0.974;2022-10-26T08:32:34;0;0;
44312;PMS5003;38833;51.142;-0.974;2022-10-26T08:35:08;0;0;
44312;PMS5003;38833;51.142;-0.974;2022-10-26T08:37:41;0;0;
44312;PMS5003;38833;51.142;-0.974;2022-10-26T08:40:15;0;0;
44312;PMS5003;38833;51.142;-0.974;2022-10-26T08:42:49;0;0;
44312;PMS5003;38833;51.142;-0.974;2022-10-26T08:45:27;0;0;
44312;PMS5003;38833;51.142;-0.974;2022-10-26T08:48:04;0;0;
44312;PMS5003;38833;51.142;-0.974;2022-10-26T08:50:47;0;0;
44312;PMS5003;38833;51.142;-0.974;2022-10-26T08:53:25;0;0;
44312;PMS5003;38833;51.142;-0.974;2022-10-26T08:56:04;0;0;
44312;PMS5003;38833;51.142;-0.974;2022-10-26T08:58:44;1;0;
44312;PMS5003;38833;51.142;-0.974;2022-10-26T09:01:20;0;0;
44312;PMS5003;38833;51.142;-0.974;2022-10-26T09:04:01;1;0;
44312;PMS5003;38833;51.142;-0.974;2022-10-26T09:06:38;0;0;
44312;PMS5003;38833;51.142;-0.974;2022-10-26T09:09:22;1;1;
44312;PMS5003;38833;51.142;-0.974;2022-10-26T09:12:02;0;0;
44312;PMS5003;38833;51.142;-0.974;2022-10-26T09:14:48;0;0;
44312;PMS5003;38833;51.142;-0.974;2022-10-26T09:17:31;0;0;
44312;PMS5003;38833;51.142;-0.974;2022-10-26T09:20:18;0;0;
44312;PMS5003;38833;51.142;-0.974;2022-10-26T09:23:05;0;0;
44312;PMS5003;38833;51.142;-0.974;2022-10-26T09:25:50;0;0;
44312;PMS5003;38833;51.142;-0.974;2022-10-26T09:28:31;0;0;
44312;PMS5003;38833;51.142;-0.974;2022-10-26T09:31:08;0;0;
44312;PMS5003;38833;51.142;-0.974;2022-10-26T09:33:47;0;0;
44312;PMS5003;38833;51.142;-0.974;2022-10-26T09:36:21;0;0;
44312;PMS5003;38833;51.142;-0.974;2022-10-26T09:38:55;0;0;
44312;PMS5003;38833;51.142;-0.974;2022-10-26T09:41:35;0;0;
44312;PMS5003;38833;51.142;-0.974;2022-10-26T09:44:16;0;0;
44312;PMS5003;38833;51.142;-0.974;2022-10-26T09:46:57;0;0;
44312;PMS5003;38833;51.142;-0.974;2022-10-26T09:49:38;0;0;
44312;PMS5003;38833;51.142;-0.974;2022-10-26T09:52:17;0;0;
44312;PMS5003;38833;51.142;-0.974;2022-10-26T09:54:51;0;0;
44312;PMS5003;38833;51.142;-0.974;2022-10-26T09:57:24;0;0;
44312;PMS5003;38833;51.142;-0.974;2022-10-26T09:59:57;0;0;
44312;PMS5003;38833;51.142;-0.974;2022-10-26T10:02:31;0;0;
44312;PMS5003;38833;51.142;-0.974;2022-10-26T10:05:23;1;1;
44312;PMS5003;38833;51.142;-0.974;2022-10-26T10:08:16;0;0;
44312;PMS5003;38833;51.142;-0.974;2022-10-26T10:10:53;0;0;
44312;PMS5003;38833;51.142;-0.974;2022-10-26T10:13:28;0;0;
44312;PMS5003;38833;51.142;-0.974;2022-10-26T10:16:05;0;0;
44312;PMS5003;38833;51.142;-0.974;2022-10-26T10:18:42;0;0;
44312;PMS5003;38833;51.142;-0.974;2022-10-26T10:21:31;0;0;
44312;PMS5003;38833;51.142;-0.974;2022-10-26T10:24:19;1;1;
44312;PMS5003;38833;51.142;-0.974;2022-10-26T10:26:56;4;2;
44312;PMS5003;38833;51.142;-0.974;2022-10-26T10:29:32;2;2;
44312;PMS5003;38833;51.142;-0.974;2022-10-26T10:32:14;5;4;
44312;PMS5003;38833;51.142;-0.974;2022-10-26T10:34:48;3;3;
44312;PMS5003;38833;51.142;-0.974;2022-10-26T10:37:24;5;5;
44312;PMS5003;38833;51.142;-0.974;2022-10-26T10:40:01;2;2;
44312;PMS5003;38833;51.142;-0.974;2022-10-26T10:42:38;3;3;
44312;PMS5003;38833;51.142;-0.974;2022-10-26T10:45:17;6;4;
44312;PMS5003;38833;51.142;-0.974;2022-10-26T10:47:57;3;3;
44312;PMS5003;38833;51.142;-0.974;2022-10-26T10:50:33;3;3;
44312;PMS5003;38833;51.142;-0.974;2022-10-26T10:53:13;1;1;
44312;PMS5003;38833;51.142;-0.974;2022-10-26T10:55:54;1;1;
44312;PMS5003;38833;51.142;-0.974;2022-10-26T10:58:40;2;2;
44312;PMS5003;38833;51.142;-0.974;2022-10-26T11:01:20;2;2;
44312;PMS5003;38833;51.142;-0.974;2022-10-26T11:03:59;3;3;
44312;PMS5003;38833;51.142;-0.974;2022-10-26T11:06:43;1;1;
44312;PMS5003;38833;51.142;-0.974;2022-10-26T11:09:20;4;2;
44312;PMS5003;38833;51.142;-0.974;2022-10-26T11:12:00;1;1;
44312;PMS5003;38833;51.142;-0.974;2022-10-26T11:14:40;3;3;
44312;PMS5003;38833;51.142;-0.974;2022-10-26T11:17:18;4;2;
44312;PMS5003;38833;51.142;-0.974;2022-10-26T11:19:54;5;1;
44312;PMS5003;38833;51.142;-0.974;2022-10-26T11:22:33;2;2;
44312;PMS5003;38833;51.142;-0.974;2022-10-26T11:25:10;3;2;
44312;PMS5003;38833;51.142;-0.974;2022-10-26T11:27:50;2;1;
44312;PMS5003;38833;51.142;-0.974;2022-10-26T11:30:27;2;2;
44312;PMS5003;38833;51.142;-0.974;2022-10-26T11:33:03;1;1;
44312;PMS5003;38833;51.142;-0.974;2022-10-26T11:35:44;4;3;
44312;PMS5003;38833;51.142;-0.974;2022-10-26T11:38:25;6;2;
44312;PMS5003;38833;51.142;-0.974;2022-10-26T11:41:05;0;0;
44312;PMS5003;38833;51.142;-0.974;2022-10-26T11:43:46;7;1;
44312;PMS5003;38833;51.142;-0.974;2022-10-26T11:46:22;3;3;
44312;PMS5003;38833;51.142;-0.974;2022-10-26T11:49:01;1;1;
44312;PMS5003;38833;51.142;-0.974;2022-10-26T11:51:42;1;1;
44312;PMS5003;38833;51.142;-0.974;2022-10-26T11:54:22;3;0;
44312;PMS5003;38833;51.142;-0.974;2022-10-26T11:57:05;1;1;
44312;PMS5003;38833;51.142;-0.974;2022-10-26T11:59:40;3;2;
44312;PMS5003;38833;51.142;-0.974;2022-10-26T12:02:18;1;1;
44312;PMS5003;38833;51.142;-0.974;2022-10-26T12:04:53;1;1;
44312;PMS5003;38833;51.142;-0.974;2022-10-26T12:07:32;1;1;
44312;PMS5003;38833;51.142;-0.974;2022-10-26T12:10:09;1;1;
44312;PMS5003;38833;51.142;-0.974;2022-10-26T12:12:54;3;2;
44312;PMS5003;38833;51.142;-0.974;2022-10-26T12:15:34;2;2;
44312;PMS5003;38833;51.142;-0.974;2022-10-26T12:18:13;2;1;
44312;PMS5003;38833;51.142;-0.974;2022-10-26T12:20:54;0;0;
44312;PMS5003;38833;51.142;-0.974;2022-10-26T12:23:31;2;1;
44312;PMS5003;38833;51.142;-0.974;2022-10-26T12:26:39;1;0;
44312;PMS5003;38833;51.142;-0.974;2022-10-26T12:29:27;0;0;
44312;PMS5003;38833;51.142;-0.974;2022-10-26T12:33:26;0;0;
44312;PMS5003;38833;51.142;-0.974;2022-10-26T12:36:00;2;0;
44312;PMS5003;38833;51.142;-0.974;2022-10-26T12:39:26;0;0;
44312;PMS5003;38833;51.142;-0.974;2022-10-26T12:42:09;2;2;
44312;PMS5003;38833;51.142;-0.974;2022-10-26T12:45:01;1;1;
44312;PMS5003;38833;51.142;-0.974;2022-10-26T12:48:01;1;0;
44312;PMS5003;38833;51.142;-0.974;2022-10-26T12:50:36;0;0;
44312;PMS5003;38833;51.142;-0.974;2022-10-26T12:53:09;0;0;
44312;PMS5003;38833;51.142;-0.974;2022-10-26T12:55:52;0;0;
44312;PMS5003;38833;51.142;-0.974;2022-10-26T12:58:38;0;0;
44312;PMS5003;38833;51.142;-0.974;2022-10-26T13:01:41;5;1;
44312;PMS5003;38833;51.142;-0.974;2022-10-26T13:02:39;5;1;
44312;PMS5003;38833;51.142;-0.974;2022-10-26T13:05:37;1;1;
44312;PMS5003;38833;51.142;-0.974;2022-10-26T13:09:28;1;0;
44312;PMS5003;38833;51.142;-0.974;2022-10-26T13:12:03;2;2;
44312;PMS5003;38833;51.142;-0.974;2022-10-26T13:14:37;1;1;
44312;PMS5003;38833;51.142;-0.974;2022-10-26T13:17:23;0;0;
44312;PMS5003;38833;51.142;-0.974;2022-10-26T13:19:59;0;0;
44312;PMS5003;38833;51.142;-0.974;2022-10-26T13:22:34;0;0;
44312;PMS5003;38833;51.142;-0.974;2022-10-26T13:25:20;0;0;
44312;PMS5003;38833;51.142;-0.974;2022-10-26T13:27:57;0;0;
44312;PMS5003;38833;51.142;-0.974;2022-10-26T13:30:34;1;1;
44312;PMS5003;38833;51.142;-0.974;2022-10-26T13:33:19;1;1;
44312;PMS5003;38833;51.142;-0.974;2022-10-26T13:35:57;0;0;
44312;PMS5003;38833;51.142;-0.974;2022-10-26T13:38:32;1;1;
44312;PMS5003;38833;51.142;-0.974;2022-10-26T13:41:12;1;1;
44312;PMS5003;38833;51.142;-0.974;2022-10-26T13:43:52;0;0;
44312;PMS5003;38833;51.142;-0.974;2022-10-26T13:46:26;2;2;
44312;PMS5003;38833;51.142;-0.974;2022-10-26T13:49:02;0;0;
44312;PMS5003;38833;51.142;-0.974;2022-10-26T13:51:42;0;0;
44312;PMS5003;38833;51.142;-0.974;2022-10-26T13:54:20;0;0;
44312;PMS5003;38833;51.142;-0.974;2022-10-26T13:57:01;0;0;
44312;PMS5003;38833;51.142;-0.974;2022-10-26T13:59:43;1;1;
44312;PMS5003;38833;51.142;-0.974;2022-10-26T14:02:18;0;0;
44312;PMS5003;38833;51.142;-0.974;2022-10-26T14:04:58;0;0;
44312;PMS5003;38833;51.142;-0.974;2022-10-26T14:07:34;1;0;
44312;PMS5003;38833;51.142;-0.974;2022-10-26T14:10:21;2;0;
44312;PMS5003;38833;51.142;-0.974;2022-10-26T14:12:58;0;0;
44312;PMS5003;38833;51.142;-0.974;2022-10-26T14:15:32;0;0;
44312;PMS5003;38833;51.142;-0.974;2022-10-26T14:18:11;1;1;
44312;PMS5003;38833;51.142;-0.974;2022-10-26T14:20:48;1;1;
44312;PMS5003;38833;51.142;-0.974;2022-10-26T14:23:27;0;0;
44312;PMS5003;38833;51.142;-0.974;2022-10-26T14:26:04;0;0;
44312;PMS5003;38833;51.142;-0.974;2022-10-26T14:28:42;0;0;
44312;PMS5003;38833;51.142;-0.974;2022-10-26T14:31:20;2;0;
44312;PMS5003;38833;51.142;-0.974;2022-10-26T14:33:56;1;1;
44312;PMS5003;38833;51.142;-0.974;2022-10-26T14:36:32;0;0;
44312;PMS5003;38833;51.142;-0.974;2022-10-26T14:39:14;0;0;
44312;PMS5003;38833;51.142;-0.974;2022-10-26T14:41:50;0;0;
44312;PMS5003;38833;51.142;-0.974;2022-10-26T14:44:26;0;0;
44312;PMS5003;38833;51.142;-0.974;2022-10-26T14:47:00;0;0;
44312;PMS5003;38833;51.142;-0.974;2022-10-26T14:49:34;0;0;
44312;PMS5003;38833;51.142;-0.974;2022-10-26T14:52:09;0;0;
44312;PMS5003;38833;51.142;-0.974;2022-10-26T14:54:55;1;1;
44312;PMS5003;38833;51.142;-0.974;2022-10-26T14:57:31;1;1;
44312;PMS5003;38833;51.142;-0.974;2022-10-26T15:00:11;2;0;
44312;PMS5003;38833;51.142;-0.974;2022-10-26T15:02:47;1;1;
44312;PMS5003;38833;51.142;-0.974;2022-10-26T15:05:25;1;1;
44312;PMS5003;38833;51.142;-0.974;2022-10-26T15:08:00;1;1;
44312;PMS5003;38833;51.142;-0.974;2022-10-26T15:10:49;2;2;
44312;PMS5003;38833;51.142;-0.974;2022-10-26T15:13:24;0;0;
44312;PMS5003;38833;51.142;-0.974;2022-10-26T15:16:06;1;1;
44312;PMS5003;38833;51.142;-0.974;2022-10-26T15:18:41;0;0;
44312;PMS5003;38833;51.142;-0.974;2022-10-26T15:21:20;1;1;
44312;PMS5003;38833;51.142;-0.974;2022-10-26T15:23:56;2;2;
44312;PMS5003;38833;51.142;-0.974;2022-10-26T15:26:30;3;3;
44312;PMS5003;38833;51.142;-0.974;2022-10-26T15:29:04;3;1;
44312;PMS5003;38833;51.142;-0.974;2022-10-26T15:32:16;2;2;
44312;PMS5003;38833;51.142;-0.974;2022-10-26T15:35:26;3;3;
44312;PMS5003;38833;51.142;-0.974;2022-10-26T15:38:00;2;2;
44312;PMS5003;38833;51.142;-0.974;2022-10-26T15:40:33;2;2;
44312;PMS5003;38833;51.142;-0.974;2022-10-26T15:43:10;4;4;
44312;PMS5003;38833;51.142;-0.974;2022-10-26T15:45:44;4;4;
44312;PMS5003;38833;51.142;-0.974;2022-10-26T15:48:21;4;4;
44312;PMS5003;38833;51.142;-0.974;2022-10-26T15:50:56;4;4;
44312;PMS5003;38833;51.142;-0.974;2022-10-26T15:53:30;3;3;
44312;PMS5003;38833;51.142;-0.974;2022-10-26T15:56:04;4;4;
44312;PMS5003;38833;51.142;-0.974;2022-10-26T15:58:46;7;5;
44312;PMS5003;38833;51.142;-0.974;2022-10-26T16:01:20;6;6;
44312;PMS5003;38833;51.142;-0.974;2022-10-26T16:03:54;6;6;
44312;PMS5003;38833;51.142;-0.974;2022-10-26T16:06:28;5;5;
44312;PMS5003;38833;51.142;-0.974;2022-10-26T16:09:04;7;7;
44312;PMS5003;38833;51.142;-0.974;2022-10-26T16:11:38;8;8;
44312;PMS5003;38833;51.142;-0.974;2022-10-26T16:14:12;10;10;
44312;PMS5003;38833;51.142;-0.974;2022-10-26T16:16:45;10;10;
44312;PMS5003;38833;51.142;-0.974;2022-10-26T16:19:18;15;15;
44312;PMS5003;38833;51.142;-0.974;2022-10-26T16:21:51;16;16;
44312;PMS5003;38833;51.142;-0.974;2022-10-26T16:24:25;16;16;
44312;PMS5003;38833;51.142;-0.974;2022-10-26T16:26:58;18;16;
44312;PMS5003;38833;51.142;-0.974;2022-10-26T16:29:32;19;19;
44312;PMS5003;38833;51.142;-0.974;2022-10-26T16:32:05;20;20;
44312;PMS5003;38833;51.142;-0.974;2022-10-26T16:34:38;22;22;
44312;PMS5003;38833;51.142;-0.974;2022-10-26T16:37:11;18;18;
44312;PMS5003;38833;51.142;-0.974;2022-10-26T16:39:45;17;16;
44312;PMS5003;38833;51.142;-0.974;2022-10-26T16:42:18;11;11;
44312;PMS5003;38833;51.142;-0.974;2022-10-26T16:44:51;8;7;
44312;PMS5003;38833;51.142;-0.974;2022-10-26T16:47:24;6;6;
44312;PMS5003;38833;51.142;-0.974;2022-10-26T16:49:58;2;2;
44312;PMS5003;38833;51.142;-0.974;2022-10-26T16:52:32;0;0;
44312;PMS5003;38833;51.142;-0.974;2022-10-26T16:55:06;0;0;
44312;PMS5003;38833;51.142;-0.974;2022-10-26T16:57:40;1;0;
44312;PMS5003;38833;51.142;-0.974;2022-10-26T17:00:13;0;0;
44312;PMS5003;38833;51.142;-0.974;2022-10-26T17:02:47;0;0;
44312;PMS5003;38833;51.142;-0.974;2022-10-26T17:05:20;0;0;
44312;PMS5003;38833;51.142;-0.974;2022-10-26T17:07:54;0;0;
44312;PMS5003;38833;51.142;-0.974;2022-10-26T17:10:27;0;0;
44312;PMS5003;38833;51.142;-0.974;2022-10-26T17:13:00;0;0;
44312;PMS5003;38833;51.142;-0.974;2022-10-26T17:15:33;0;0;
44312;PMS5003;38833;51.142;-0.974;2022-10-26T17:18:06;0;0;
44312;PMS5003;38833;51.142;-0.974;2022-10-26T17:20:39;0;0;
44312;PMS5003;38833;51.142;-0.974;2022-10-26T17:23:21;0;0;
44312;PMS5003;38833;51.142;-0.974;2022-10-26T17:25:54;0;0;
44312;PMS5003;38833;51.142;-0.974;2022-10-26T17:28:33;0;0;
44312;PMS5003;38833;51.142;-0.974;2022-10-26T17:31:07;0;0;
44312;PMS5003;38833;51.142;-0.974;2022-10-26T17:33:42;1;0;
44312;PMS5003;38833;51.142;-0.974;2022-10-26T17:36:17;0;0;
44312;PMS5003;38833;51.142;-0.974;2022-10-26T17:38:53;0;0;
44312;PMS5003;38833;51.142;-0.974;2022-10-26T17:41:26;3;0;